Franklin, Kentucky
Current Conditions -  °F | °C
As of 8:53 AM on Saturday 25 Oct 2014 (Local Time) from KBWG Reporting Station
Overcast Overcast  
Wind Chill: 56°   Ceiling: 4100
Heat Index: 56°   Visibility: 9mi
Dew Point: 50°   Wind: 6mph
Humidity: 80%   Direction: 210°SSW
Pressure: 30.07"   Gusts: NA
Location:  36.72°N, 86.58°W
Report Text: KBWG 251353Z AUTO 21005KT 9SM BKN041 OVC048 13/10 A3007 RMK AO2 SLP182 T01330100
Loading
Personal Weather Stations






























Interactive Weather Map
Tropical Storm Tracking
New forecast layout! Learn more

10-Day Weather Forecast

Advertisements
Track Severe Weather on mobile